createdAt,value
2019-02-22T00:00:53.978Z,52.00
2019-02-22T00:03:21.925Z,52.10
2019-02-22T00:05:50.105Z,52.40
2019-02-22T00:08:17.962Z,52.10
2019-02-22T00:10:45.802Z,52.20
2019-02-22T00:13:13.752Z,52.50
2019-02-22T00:15:42.328Z,52.40
2019-02-22T00:18:10.557Z,52.30
2019-02-22T00:20:38.406Z,52.40
2019-02-22T00:23:06.699Z,52.50
2019-02-22T00:25:34.548Z,52.40
2019-02-22T00:28:02.407Z,52.30
2019-02-22T00:30:30.244Z,52.60
2019-02-22T00:32:58.186Z,52.60
2019-02-22T00:35:26.469Z,52.60
2019-02-22T00:37:54.716Z,52.60
2019-02-22T00:43:08.779Z,52.50
2019-02-22T00:45:36.955Z,52.70
2019-02-22T00:48:04.835Z,52.50
2019-02-22T00:50:32.691Z,52.40
2019-02-22T00:53:00.559Z,52.60
2019-02-22T00:55:28.823Z,52.40
2019-02-22T00:57:56.695Z,52.50
2019-02-22T01:00:24.863Z,52.40
2019-02-22T01:02:52.735Z,52.30
2019-02-22T01:05:20.578Z,52.30
2019-02-22T01:07:48.789Z,52.30
2019-02-22T01:10:18.275Z,52.40
2019-02-22T01:12:46.551Z,52.70
2019-02-22T01:15:14.752Z,52.50
2019-02-22T01:17:42.940Z,52.50
2019-02-22T01:20:10.791Z,52.60
2019-02-22T01:22:38.742Z,52.40
2019-02-22T01:25:06.576Z,52.20
2019-02-22T01:27:34.771Z,52.50
2019-02-22T01:30:02.618Z,52.60
2019-02-22T01:32:30.458Z,52.40
2019-02-22T01:34:58.884Z,52.50
2019-02-22T01:37:26.731Z,52.50
2019-02-22T01:39:54.921Z,52.50
2019-02-22T01:42:23.095Z,52.50
2019-02-22T01:44:51.297Z,52.50
2019-02-22T01:47:19.226Z,52.40
2019-02-22T01:49:47.066Z,52.30
2019-02-22T01:52:15.480Z,52.70
2019-02-22T01:54:43.760Z,52.60
2019-02-22T01:57:11.608Z,52.50
2019-02-22T01:59:39.529Z,52.20
2019-02-22T02:02:07.665Z,52.60
2019-02-22T02:04:35.598Z,52.40
2019-02-22T02:07:03.703Z,52.60
2019-02-22T02:09:31.882Z,52.50
2019-02-22T02:12:01.800Z,52.40
2019-02-22T02:14:29.764Z,52.50
2019-02-22T02:16:57.618Z,52.50
2019-02-22T02:19:25.795Z,52.30
2019-02-22T02:21:53.994Z,52.40
2019-02-22T02:24:22.143Z,52.40
2019-02-22T02:26:49.994Z,52.30
2019-02-22T02:29:18.188Z,52.50
2019-02-22T02:31:46.033Z,52.50
2019-02-22T02:34:13.903Z,52.50
2019-02-22T02:36:41.740Z,52.20
2019-02-22T02:39:09.622Z,52.60
2019-02-22T02:41:37.694Z,52.50
2019-02-22T02:44:05.563Z,52.70
2019-02-22T02:46:33.406Z,52.60
2019-02-22T02:49:01.266Z,52.70
2019-02-22T02:51:29.132Z,52.50
2019-02-22T02:53:57.069Z,52.60
2019-02-22T02:56:25.350Z,52.60
2019-02-22T02:58:53.599Z,52.60
2019-02-22T03:01:21.524Z,52.50
2019-02-22T03:03:49.660Z,52.70
2019-02-22T03:06:42.844Z,52.30
2019-02-22T03:09:10.828Z,52.80
2019-02-22T03:11:38.760Z,52.70
2019-02-22T03:14:07.321Z,52.70
2019-02-22T03:16:35.243Z,52.50
2019-02-22T03:19:03.112Z,52.90
2019-02-22T03:21:31.227Z,52.60
2019-02-22T03:23:59.091Z,52.60
2019-02-22T03:26:26.936Z,52.80
2019-02-22T03:28:54.821Z,52.70
2019-02-22T03:31:22.658Z,52.50
2019-02-22T03:33:50.546Z,52.40
2019-02-22T03:36:18.519Z,52.20
2019-02-22T03:38:46.395Z,52.40
2019-02-22T03:41:14.269Z,52.80
2019-02-22T03:43:42.144Z,52.30
2019-02-22T03:46:10.300Z,52.30
2019-02-22T03:48:38.145Z,52.60
2019-02-22T03:51:06.071Z,52.20
2019-02-22T03:53:57.579Z,52.40
2019-02-22T03:56:25.429Z,51.90
2019-02-22T03:58:53.364Z,51.80
2019-02-22T04:01:21.202Z,52.00
2019-02-22T04:03:49.114Z,51.70
2019-02-22T04:06:17.291Z,51.50
2019-02-22T04:08:45.669Z,52.30
2019-02-22T04:11:13.844Z,51.30
2019-02-22T04:13:42.016Z,51.60
2019-02-22T04:16:10.194Z,51.60
2019-02-22T04:18:38.997Z,51.70
2019-02-22T04:21:06.851Z,52.30
2019-02-22T04:23:35.015Z,52.20
2019-02-22T04:26:02.883Z,51.90
2019-02-22T04:28:30.732Z,52.30
2019-02-22T04:30:58.928Z,52.60
2019-02-22T04:33:26.795Z,52.10
2019-02-22T04:35:54.734Z,52.30
2019-02-22T04:38:22.575Z,51.80
2019-02-22T04:40:50.447Z,52.30
2019-02-22T04:43:18.569Z,51.50
2019-02-22T04:45:46.734Z,51.90
2019-02-22T04:48:14.657Z,51.80
2019-02-22T04:50:42.526Z,51.80
2019-02-22T04:53:10.463Z,52.00
2019-02-22T04:55:38.407Z,51.60
2019-02-22T04:58:06.260Z,52.30
2019-02-22T05:00:34.132Z,52.30
2019-02-22T05:03:01.974Z,51.30
2019-02-22T05:05:29.852Z,51.40
2019-02-22T05:07:57.696Z,51.40
2019-02-22T05:10:25.577Z,51.70
2019-02-22T05:12:53.896Z,51.70
2019-02-22T05:15:21.764Z,52.00
2019-02-22T05:17:50.050Z,52.00
2019-02-22T05:20:18.193Z,51.80
2019-02-22T05:22:46.048Z,51.20
2019-02-22T05:25:13.919Z,51.30
2019-02-22T05:27:42.510Z,51.30
2019-02-22T05:30:10.382Z,51.30
2019-02-22T05:32:38.564Z,50.90
2019-02-22T05:35:06.430Z,51.10
2019-02-22T05:37:34.353Z,51.70
2019-02-22T05:40:02.299Z,51.00
2019-02-22T05:42:30.142Z,50.60
2019-02-22T05:44:58.396Z,50.40
2019-02-22T05:47:26.232Z,51.30
2019-02-22T05:49:54.397Z,51.60
2019-02-22T05:52:22.235Z,51.10
2019-02-22T05:54:50.073Z,52.20
2019-02-22T05:57:17.924Z,52.80
2019-02-22T05:59:45.775Z,52.90
2019-02-22T06:02:14.719Z,52.90
2019-02-22T06:04:42.828Z,52.80
2019-02-22T06:07:11.028Z,52.60
2019-02-22T06:09:39.200Z,53.10
2019-02-22T06:12:07.063Z,53.00
2019-02-22T06:14:34.908Z,52.80
2019-02-22T06:17:13.911Z,52.80
2019-02-22T06:19:32.695Z,52.90
2019-02-22T06:22:00.670Z,52.90
2019-02-22T06:24:28.521Z,52.80
2019-02-22T06:26:56.619Z,52.70
2019-02-22T06:29:25.126Z,52.70
2019-02-22T06:31:53.125Z,52.80
2019-02-22T06:34:20.958Z,52.70
2019-02-22T06:37:00.797Z,52.50
2019-02-22T06:39:18.682Z,52.60
2019-02-22T06:41:46.603Z,52.90
2019-02-22T06:44:14.519Z,52.80
2019-02-22T06:46:42.367Z,52.80
2019-02-22T06:49:10.235Z,52.80
2019-02-22T06:51:38.451Z,52.80
2019-02-22T06:54:06.648Z,52.70
2019-02-22T06:56:34.487Z,52.60
2019-02-22T06:59:02.339Z,52.70
2019-02-22T07:01:30.197Z,52.70
2019-02-22T07:03:58.064Z,52.60
2019-02-22T07:06:26.273Z,52.70
2019-02-22T07:08:54.439Z,52.80
2019-02-22T07:11:54.048Z,52.60
2019-02-22T07:14:22.228Z,52.70
2019-02-22T07:16:50.396Z,52.30
2019-02-22T07:19:18.567Z,52.20
2019-02-22T07:21:52.729Z,52.20
2019-02-22T07:24:15.979Z,52.10
2019-02-22T07:26:44.116Z,52.00
2019-02-22T07:29:12.287Z,52.00
2019-02-22T07:31:40.132Z,52.10
2019-02-22T07:34:07.979Z,51.80
2019-02-22T07:36:35.843Z,50.80
2019-02-22T07:39:05.307Z,50.80
2019-02-22T07:41:33.180Z,49.70
2019-02-22T07:44:02.749Z,49.80
2019-02-22T07:46:30.631Z,50.40
2019-02-22T07:48:58.522Z,49.20
2019-02-22T07:51:26.671Z,49.30
2019-02-22T07:53:54.511Z,49.20
2019-02-22T07:56:22.552Z,48.90
2019-02-22T07:58:50.580Z,49.40
2019-02-22T08:01:18.422Z,50.10
2019-02-22T08:03:46.389Z,50.00
2019-02-22T08:06:14.244Z,49.30
2019-02-22T08:08:42.470Z,49.20
2019-02-22T08:11:10.634Z,49.70
2019-02-22T08:13:38.508Z,49.20
2019-02-22T08:16:06.660Z,48.90
2019-02-22T08:18:34.831Z,48.90
2019-02-22T08:21:02.691Z,48.90
2019-02-22T08:23:30.535Z,48.90
2019-02-22T08:25:59.043Z,48.80
2019-02-22T08:28:26.903Z,49.70
2019-02-22T08:30:55.083Z,48.90
2019-02-22T08:33:22.929Z,48.80
2019-02-22T08:35:50.782Z,48.70
2019-02-22T08:38:18.888Z,48.80
2019-02-22T08:40:47.065Z,48.90
2019-02-22T08:43:15.243Z,48.60
2019-02-22T08:45:43.448Z,48.80
2019-02-22T08:48:11.805Z,48.70
2019-02-22T08:50:39.959Z,48.70
2019-02-22T08:53:07.803Z,48.70
2019-02-22T08:55:37.279Z,48.80
2019-02-22T08:58:05.118Z,48.70
2019-02-22T09:00:32.969Z,48.30
2019-02-22T09:03:00.819Z,49.40
2019-02-22T09:05:28.666Z,49.60
2019-02-22T09:07:56.539Z,49.20
2019-02-22T09:10:24.391Z,49.10
2019-02-22T09:12:52.604Z,49.50
2019-02-22T09:15:20.452Z,50.70
2019-02-22T09:17:48.968Z,50.00
2019-02-22T09:20:16.811Z,49.50
2019-02-22T09:22:45.403Z,49.50
2019-02-22T09:25:13.265Z,49.40
2019-02-22T09:27:41.226Z,49.40
2019-02-22T09:30:09.671Z,49.40
2019-02-22T09:32:37.539Z,49.40
2019-02-22T09:35:06.467Z,49.30
2019-02-22T09:37:34.640Z,49.30
2019-02-22T09:40:02.483Z,49.40
2019-02-22T09:42:30.371Z,49.30
2019-02-22T09:44:58.221Z,49.30
2019-02-22T09:47:26.083Z,49.30
2019-02-22T09:49:54.284Z,49.40
2019-02-22T09:52:22.127Z,49.40
2019-02-22T09:54:49.980Z,49.30
2019-02-22T09:57:17.823Z,50.20
2019-02-22T09:59:45.671Z,49.60
2019-02-22T10:02:13.518Z,49.40
2019-02-22T10:04:41.679Z,49.40
2019-02-22T10:07:09.851Z,49.30
2019-02-22T10:09:37.750Z,49.40
2019-02-22T10:12:05.891Z,49.40
2019-02-22T10:14:33.739Z,49.30
2019-02-22T10:17:01.595Z,49.40
2019-02-22T10:19:29.443Z,49.40
2019-02-22T10:21:57.778Z,49.40
2019-02-22T10:24:25.855Z,49.50
2019-02-22T10:26:53.702Z,49.40
2019-02-22T10:29:21.547Z,49.40
2019-02-22T10:31:49.411Z,49.40
2019-02-22T10:34:17.524Z,50.70
2019-02-22T10:36:45.799Z,49.80
2019-02-22T10:39:13.691Z,49.70
2019-02-22T10:41:41.530Z,49.60
2019-02-22T10:44:17.387Z,49.50
2019-02-22T10:46:38.983Z,49.80
2019-02-22T10:49:06.931Z,50.00
2019-02-22T10:51:34.792Z,49.90
2019-02-22T10:54:03.000Z,49.90
2019-02-22T10:56:31.174Z,49.90
2019-02-22T10:58:59.047Z,49.70
2019-02-22T11:01:27.320Z,49.80
2019-02-22T11:03:55.484Z,50.30
2019-02-22T11:06:23.335Z,50.80
2019-02-22T11:08:51.548Z,50.40
2019-02-22T11:11:19.463Z,51.00
2019-02-22T11:13:47.704Z,50.30
2019-02-22T11:16:16.251Z,50.50
2019-02-22T11:18:44.123Z,50.50
2019-02-22T11:21:12.294Z,50.60
2019-02-22T11:23:40.159Z,50.50
2019-02-22T11:26:08.003Z,50.50
2019-02-22T11:28:35.843Z,50.40
2019-02-22T11:31:04.063Z,50.80
2019-02-22T11:33:31.910Z,50.50
2019-02-22T11:35:59.754Z,50.40
2019-02-22T11:38:27.867Z,50.60
2019-02-22T11:40:56.052Z,50.70
2019-02-22T11:43:23.967Z,51.10
2019-02-22T11:45:51.893Z,51.10
2019-02-22T11:48:19.735Z,51.10
2019-02-22T11:50:47.917Z,50.90
2019-02-22T11:53:16.391Z,50.90
2019-02-22T11:55:44.234Z,51.10
2019-02-22T11:58:12.431Z,51.40
2019-02-22T12:00:40.350Z,51.50
2019-02-22T12:03:21.224Z,51.50
2019-02-22T12:05:37.780Z,51.70
2019-02-22T12:08:05.711Z,52.30
2019-02-22T12:10:33.680Z,52.20
2019-02-22T12:13:02.119Z,52.50
2019-02-22T12:15:31.549Z,52.30
2019-02-22T12:17:59.992Z,52.20
2019-02-22T12:20:27.875Z,52.30
2019-02-22T12:22:55.891Z,52.60
2019-02-22T12:25:24.084Z,52.00
2019-02-22T12:27:51.936Z,52.00
2019-02-22T12:30:19.859Z,51.90
2019-02-22T12:32:48.091Z,51.90
2019-02-22T12:35:16.115Z,52.00
2019-02-22T12:37:44.344Z,51.90
2019-02-22T12:40:12.293Z,51.80
2019-02-22T12:42:40.475Z,51.90
2019-02-22T12:45:08.329Z,52.30
2019-02-22T12:47:36.167Z,52.00
2019-02-22T12:50:04.597Z,52.80
2019-02-22T12:52:32.435Z,52.30
2019-02-22T12:55:00.652Z,51.90
2019-02-22T12:57:28.511Z,51.90
2019-02-22T12:59:56.380Z,51.90
2019-02-22T13:02:24.531Z,51.90
2019-02-22T13:04:52.399Z,51.90
2019-02-22T13:07:20.571Z,52.00
2019-02-22T13:09:48.743Z,52.10
2019-02-22T13:12:17.457Z,52.00
2019-02-22T13:14:45.464Z,51.90
2019-02-22T13:17:13.571Z,51.80
2019-02-22T13:19:41.771Z,52.00
2019-02-22T13:22:09.611Z,52.20
2019-02-22T13:24:37.503Z,52.30
2019-02-22T13:27:05.352Z,52.30
2019-02-22T13:29:33.543Z,52.00
2019-02-22T13:32:01.391Z,51.50
2019-02-22T13:34:29.256Z,51.90
2019-02-22T13:36:57.836Z,51.60
2019-02-22T13:39:25.710Z,52.20
2019-02-22T13:41:53.559Z,51.50
2019-02-22T13:44:21.431Z,51.30
2019-02-22T13:46:49.607Z,51.30
2019-02-22T13:49:17.778Z,51.30
2019-02-22T13:51:45.627Z,51.20
2019-02-22T13:54:13.576Z,51.10
2019-02-22T13:56:41.412Z,51.10
2019-02-22T13:59:09.291Z,51.40
2019-02-22T14:01:37.519Z,51.10
2019-02-22T14:04:05.399Z,51.20
2019-02-22T14:06:33.268Z,51.20
2019-02-22T14:09:01.427Z,51.00
2019-02-22T14:11:29.295Z,51.10
2019-02-22T14:13:57.191Z,51.00
2019-02-22T14:16:25.043Z,51.00
2019-02-22T14:18:53.195Z,51.10
2019-02-22T14:21:21.348Z,51.10
2019-02-22T14:23:49.208Z,51.20
2019-02-22T14:26:17.412Z,51.20
2019-02-22T14:28:45.604Z,51.20
2019-02-22T14:31:13.447Z,51.20
2019-02-22T14:33:41.295Z,51.10
2019-02-22T14:36:09.147Z,51.10
2019-02-22T14:38:37.124Z,51.30
2019-02-22T14:41:05.006Z,51.30
2019-02-22T14:43:32.846Z,51.10
2019-02-22T14:46:00.683Z,51.10
2019-02-22T14:48:28.524Z,51.10
2019-02-22T14:50:56.374Z,51.50
2019-02-22T14:53:24.211Z,51.10
2019-02-22T14:55:52.051Z,51.90
2019-02-22T14:58:19.890Z,51.20
2019-02-22T15:00:48.088Z,51.70
2019-02-22T15:03:16.324Z,51.50
2019-02-22T15:05:44.724Z,51.20
2019-02-22T15:08:13.195Z,51.00
2019-02-22T15:10:41.055Z,51.10
2019-02-22T15:13:12.489Z,51.30
2019-02-22T15:16:04.148Z,51.10
2019-02-22T15:18:32.123Z,50.90
2019-02-22T15:21:00.266Z,51.10
2019-02-22T15:23:28.108Z,50.70
2019-02-22T15:25:56.017Z,50.90
2019-02-22T15:28:26.348Z,51.00
2019-02-22T15:30:53.896Z,50.90
2019-02-22T15:33:21.780Z,51.00
2019-02-22T15:35:50.024Z,51.10
2019-02-22T15:38:18.200Z,51.10
2019-02-22T15:40:46.130Z,50.80
2019-02-22T15:43:14.017Z,50.70
2019-02-22T15:45:41.895Z,50.70
2019-02-22T15:48:09.735Z,50.80
2019-02-22T15:50:37.748Z,50.60
2019-02-22T15:53:05.785Z,50.60
2019-02-22T15:55:34.086Z,50.60
2019-02-22T15:58:02.273Z,50.60
2019-02-22T16:00:30.878Z,50.50
2019-02-22T16:02:59.429Z,50.50
2019-02-22T16:05:30.251Z,51.00
2019-02-22T16:07:58.535Z,50.70
2019-02-22T16:10:26.803Z,50.90
2019-02-22T16:12:55.073Z,50.80
2019-02-22T16:15:22.952Z,50.90
2019-02-22T16:17:50.799Z,50.60
2019-02-22T16:20:19.011Z,50.80
2019-02-22T16:22:46.919Z,51.60
2019-02-22T16:25:19.546Z,51.10
2019-02-22T16:27:44.421Z,50.80
2019-02-22T16:30:13.425Z,51.00
2019-02-22T16:32:41.267Z,50.80
2019-02-22T16:35:09.144Z,50.40
2019-02-22T16:37:36.999Z,50.20
2019-02-22T16:40:05.490Z,50.50
2019-02-22T16:42:33.335Z,50.50
2019-02-22T16:45:01.439Z,50.40
2019-02-22T16:47:39.584Z,51.10
2019-02-22T16:49:58.867Z,50.60
2019-02-22T16:52:26.981Z,50.50
2019-02-22T16:54:55.255Z,50.60
2019-02-22T16:57:23.430Z,50.60
2019-02-22T16:59:51.608Z,50.60
2019-02-22T17:02:19.451Z,50.40
2019-02-22T17:04:47.643Z,50.40
2019-02-22T17:07:15.491Z,50.50
2019-02-22T17:09:43.683Z,50.60
2019-02-22T17:12:11.855Z,50.60
2019-02-22T17:14:39.700Z,49.80
2019-02-22T17:17:07.922Z,49.60
2019-02-22T17:19:35.833Z,50.20
2019-02-22T17:22:03.713Z,50.80
2019-02-22T17:24:32.317Z,51.80
2019-02-22T17:27:00.190Z,52.10
2019-02-22T17:29:28.350Z,52.10
2019-02-22T17:31:56.533Z,52.10
2019-02-22T17:34:24.366Z,51.20
2019-02-22T17:36:52.567Z,51.10
2019-02-22T17:39:20.407Z,51.40
2019-02-22T17:41:48.292Z,51.10
2019-02-22T17:44:16.135Z,51.30
2019-02-22T17:46:44.010Z,51.20
2019-02-22T17:49:11.850Z,51.40
2019-02-22T17:51:39.728Z,50.40
2019-02-22T17:54:07.583Z,50.60
2019-02-22T17:56:35.547Z,50.50
2019-02-22T17:59:03.403Z,50.30
2019-02-22T18:01:31.361Z,50.50
2019-02-22T18:03:59.529Z,51.10
2019-02-22T18:06:27.443Z,50.60
2019-02-22T18:08:55.290Z,50.50
2019-02-22T18:11:23.516Z,51.30
2019-02-22T18:13:51.696Z,50.70
2019-02-22T18:16:19.572Z,50.70
2019-02-22T18:18:48.038Z,51.30
2019-02-22T18:21:16.512Z,51.40
2019-02-22T18:23:44.691Z,52.20
2019-02-22T18:26:12.964Z,51.50
2019-02-22T18:28:41.137Z,51.50
2019-02-22T18:31:09.019Z,51.50
2019-02-22T18:33:36.872Z,51.50
2019-02-22T18:36:04.764Z,51.50
2019-02-22T18:38:33.012Z,51.40
2019-02-22T18:41:00.922Z,51.40
2019-02-22T18:43:28.807Z,51.40
2019-02-22T18:45:57.019Z,51.50
2019-02-22T18:48:25.524Z,51.30
2019-02-22T18:50:53.780Z,51.40
2019-02-22T18:53:21.631Z,51.50
2019-02-22T18:55:50.553Z,51.20
2019-02-22T18:58:18.511Z,50.70
2019-02-22T19:00:46.355Z,50.70
2019-02-22T19:03:14.204Z,50.80
2019-02-22T19:05:42.046Z,51.00
2019-02-22T19:08:09.896Z,51.10
2019-02-22T19:10:37.733Z,51.20
2019-02-22T19:13:05.909Z,51.10
2019-02-22T19:15:34.385Z,51.00
2019-02-22T19:18:02.267Z,51.00
2019-02-22T19:20:30.424Z,50.90
2019-02-22T19:22:58.311Z,51.00
2019-02-22T19:25:26.152Z,51.00
2019-02-22T19:27:54.024Z,50.80
2019-02-22T19:30:22.295Z,50.90
2019-02-22T19:32:50.468Z,50.70
2019-02-22T19:35:18.315Z,50.70
2019-02-22T19:37:47.183Z,50.70
2019-02-22T19:40:16.423Z,51.40
2019-02-22T19:42:44.344Z,50.60
2019-02-22T19:45:12.467Z,50.40
2019-02-22T19:47:42.065Z,50.60
2019-02-22T19:50:11.062Z,50.50
2019-02-22T19:52:39.235Z,50.70
2019-02-22T19:55:08.160Z,50.60
2019-02-22T19:57:36.038Z,50.60
2019-02-22T20:00:04.204Z,50.60
2019-02-22T20:02:32.340Z,50.60
2019-02-22T20:05:00.496Z,50.70
2019-02-22T20:07:28.688Z,50.60
2019-02-22T20:09:56.964Z,50.80
2019-02-22T20:12:24.843Z,50.60
2019-02-22T20:14:52.683Z,50.60
2019-02-22T20:17:20.569Z,50.70
2019-02-22T20:19:48.411Z,50.80
2019-02-22T20:22:16.599Z,50.50
2019-02-22T20:24:44.776Z,50.80
2019-02-22T20:27:12.947Z,50.60
2019-02-22T20:29:40.804Z,50.50
2019-02-22T20:32:08.745Z,50.30
2019-02-22T20:34:36.852Z,50.30
2019-02-22T20:37:04.806Z,50.40
2019-02-22T20:39:32.996Z,50.40
2019-02-22T20:42:01.169Z,50.40
2019-02-22T20:44:29.054Z,50.30
2019-02-22T20:46:56.903Z,50.20
2019-02-22T20:49:24.747Z,50.20
2019-02-22T20:51:52.940Z,50.20
2019-02-22T20:54:20.798Z,50.30
2019-02-22T20:56:48.641Z,50.30
2019-02-22T20:59:16.493Z,50.30
2019-02-22T21:01:44.612Z,50.20
2019-02-22T21:04:12.888Z,50.30
2019-02-22T21:06:40.911Z,50.30
2019-02-22T21:09:09.028Z,50.30
2019-02-22T21:11:36.867Z,50.40
2019-02-22T21:14:04.715Z,50.30
2019-02-22T21:16:32.835Z,50.40
2019-02-22T21:19:01.031Z,50.60
2019-02-22T21:21:29.181Z,50.60
2019-02-22T21:23:57.024Z,49.90
2019-02-22T21:26:25.215Z,50.20
2019-02-22T21:28:53.414Z,50.20
2019-02-22T21:31:21.343Z,50.10
2019-02-22T21:33:49.535Z,50.10
2019-02-22T21:36:17.708Z,50.30
2019-02-22T21:38:45.727Z,50.20
2019-02-22T21:41:16.324Z,50.20
2019-02-22T21:43:44.171Z,50.60
2019-02-22T21:46:12.344Z,50.70
2019-02-22T21:48:40.535Z,49.60
2019-02-22T21:51:08.704Z,49.90
2019-02-22T21:53:36.988Z,49.90
2019-02-22T21:56:04.833Z,50.10
2019-02-22T21:58:32.748Z,50.00
2019-02-22T22:01:00.876Z,50.00
2019-02-22T22:03:28.719Z,49.90
2019-02-22T22:05:57.223Z,49.90
2019-02-22T22:08:25.396Z,49.90
2019-02-22T22:10:53.267Z,49.70
2019-02-22T22:13:21.115Z,49.80
2019-02-22T22:15:49.299Z,50.50
2019-02-22T22:18:17.143Z,49.90
2019-02-22T22:20:45.355Z,49.80
2019-02-22T22:23:13.201Z,49.80
2019-02-22T22:25:41.386Z,49.80
2019-02-22T22:28:09.759Z,49.90
2019-02-22T22:30:37.598Z,49.80
2019-02-22T22:33:05.467Z,49.70
2019-02-22T22:35:33.560Z,49.90
2019-02-22T22:38:01.513Z,50.20
2019-02-22T22:40:29.350Z,52.50
2019-02-22T22:42:57.574Z,52.70
2019-02-22T22:45:25.519Z,52.90
2019-02-22T22:47:53.410Z,53.00
2019-02-22T22:50:21.592Z,53.10
2019-02-22T22:52:49.426Z,53.40
2019-02-22T22:55:17.274Z,53.30
2019-02-22T22:57:45.108Z,53.50
2019-02-22T23:00:25.291Z,53.60
2019-02-22T23:02:53.207Z,53.60
2019-02-22T23:05:21.064Z,53.70
2019-02-22T23:07:48.971Z,53.70
2019-02-22T23:10:16.908Z,53.80
2019-02-22T23:12:44.751Z,53.70
2019-02-22T23:15:12.987Z,53.80
2019-02-22T23:17:41.164Z,53.80
2019-02-22T23:20:09.171Z,53.80
2019-02-22T23:22:37.011Z,53.80
2019-02-22T23:25:05.031Z,53.80
2019-02-22T23:27:32.947Z,53.90
2019-02-22T23:30:01.059Z,54.00
2019-02-22T23:32:28.900Z,53.80
2019-02-22T23:34:57.099Z,54.00
2019-02-22T23:37:25.267Z,53.90
2019-02-22T23:39:53.447Z,53.80
2019-02-22T23:42:21.291Z,54.50
2019-02-22T23:44:49.135Z,54.00
2019-02-22T23:47:17.243Z,53.90
2019-02-22T23:49:45.422Z,54.00
2019-02-22T23:52:13.616Z,54.00
2019-02-22T23:54:41.458Z,53.90
2019-02-22T23:57:09.332Z,54.00
2019-02-22T23:59:37.183Z,53.80
